sensor_id;sensor_type;location;lat;lon;timestamp;pressure;altitude;pressure_sealevel;temperature;humidity
80393;BME280;69719;45.544;10.218;2024-01-15T00:02:12;99059.00;;;4.37;100.00
80393;BME280;69719;45.544;10.218;2024-01-15T00:04:38;99062.44;;;4.57;100.00
80393;BME280;69719;45.544;10.218;2024-01-15T00:07:05;99058.69;;;4.93;100.00
80393;BME280;69719;45.544;10.218;2024-01-15T00:09:30;99050.53;;;4.63;100.00
80393;BME280;69719;45.544;10.218;2024-01-15T00:11:56;99050.31;;;4.58;100.00
80393;BME280;69719;45.544;10.218;2024-01-15T00:14:22;99044.19;;;4.59;100.00
80393;BME280;69719;45.544;10.218;2024-01-15T00:16:47;99034.09;;;4.51;100.00
80393;BME280;69719;45.544;10.218;2024-01-15T00:19:15;99038.44;;;4.57;100.00
80393;BME280;69719;45.544;10.218;2024-01-15T00:21:41;99036.06;;;4.62;100.00
80393;BME280;69719;45.544;10.218;2024-01-15T00:24:07;99031.53;;;4.64;100.00
80393;BME280;69719;45.544;10.218;2024-01-15T00:26:36;99029.72;;;4.64;100.00
80393;BME280;69719;45.544;10.218;2024-01-15T00:29:26;99040.44;;;4.61;100.00
80393;BME280;69719;45.544;10.218;2024-01-15T00:31:52;99029.13;;;4.69;100.00
80393;BME280;69719;45.544;10.218;2024-01-15T00:34:17;99022.59;;;4.73;100.00
80393;BME280;69719;45.544;10.218;2024-01-15T00:36:43;99031.50;;;4.77;100.00
80393;BME280;69719;45.544;10.218;2024-01-15T00:39:08;99022.00;;;4.84;100.00
80393;BME280;69719;45.544;10.218;2024-01-15T00:41:36;99015.84;;;5.11;100.00
80393;BME280;69719;45.544;10.218;2024-01-15T00:44:02;99010.50;;;4.93;100.00
80393;BME280;69719;45.544;10.218;2024-01-15T00:46:28;98991.69;;;4.66;100.00
80393;BME280;69719;45.544;10.218;2024-01-15T00:48:54;99009.91;;;4.72;100.00
80393;BME280;69719;45.544;10.218;2024-01-15T00:51:19;98998.00;;;4.90;100.00
80393;BME280;69719;45.544;10.218;2024-01-15T00:53:45;98991.66;;;5.06;100.00
80393;BME280;69719;45.544;10.218;2024-01-15T00:56:10;98997.22;;;4.96;100.00
80393;BME280;69719;45.544;10.218;2024-01-15T00:58:36;98992.06;;;4.96;100.00
80393;BME280;69719;45.544;10.218;2024-01-15T01:01:01;98998.00;;;4.97;100.00
80393;BME280;69719;45.544;10.218;2024-01-15T01:03:26;98996.63;;;4.94;100.00
80393;BME280;69719;45.544;10.218;2024-01-15T01:05:52;99001.97;;;4.93;100.00
80393;BME280;69719;45.544;10.218;2024-01-15T01:08:17;99002.19;;;4.85;100.00
80393;BME280;69719;45.544;10.218;2024-01-15T01:10:43;98989.31;;;4.78;100.00
80393;BME280;69719;45.544;10.218;2024-01-15T01:13:09;98998.00;;;4.90;100.00
80393;BME280;69719;45.544;10.218;2024-01-15T01:15:34;98991.69;;;4.86;100.00
80393;BME280;69719;45.544;10.218;2024-01-15T01:18:00;98995.25;;;4.85;100.00
80393;BME280;69719;45.544;10.218;2024-01-15T01:20:25;98991.28;;;4.96;100.00
80393;BME280;69719;45.544;10.218;2024-01-15T01:22:51;98991.28;;;4.96;100.00
80393;BME280;69719;45.544;10.218;2024-01-15T01:25:16;98978.41;;;5.02;100.00
80393;BME280;69719;45.544;10.218;2024-01-15T01:27:42;98977.78;;;5.07;100.00
80393;BME280;69719;45.544;10.218;2024-01-15T01:30:08;98976.44;;;4.78;100.00
80393;BME280;69719;45.544;10.218;2024-01-15T01:32:33;98970.84;;;4.94;100.00
80393;BME280;69719;45.544;10.218;2024-01-15T01:34:59;98961.53;;;4.93;100.00
80393;BME280;69719;45.544;10.218;2024-01-15T01:37:24;98955.44;;;4.81;100.00
80393;BME280;69719;45.544;10.218;2024-01-15T01:39:50;98964.34;;;4.85;100.00
80393;BME280;69719;45.544;10.218;2024-01-15T01:42:15;98965.53;;;4.76;100.00
80393;BME280;69719;45.544;10.218;2024-01-15T01:44:41;98958.38;;;4.78;100.00
80393;BME280;69719;45.544;10.218;2024-01-15T01:47:07;98951.47;;;4.85;100.00
80393;BME280;69719;45.544;10.218;2024-01-15T01:49:33;98940.50;;;5.09;100.00
80393;BME280;69719;45.544;10.218;2024-01-15T01:52:02;98928.41;;;5.03;100.00
80393;BME280;69719;45.544;10.218;2024-01-15T01:54:30;98933.78;;;5.02;100.00
80393;BME280;69719;45.544;10.218;2024-01-15T01:56:57;98925.59;;;5.18;100.00
80393;BME280;69719;45.544;10.218;2024-01-15T01:59:23;98923.03;;;5.11;100.00
80393;BME280;69719;45.544;10.218;2024-01-15T02:01:51;98930.00;;;5.11;100.00
80393;BME280;69719;45.544;10.218;2024-01-15T02:04:18;98924.66;;;5.06;100.00
80393;BME280;69719;45.544;10.218;2024-01-15T02:06:43;98918.72;;;4.79;100.00
80393;BME280;69719;45.544;10.218;2024-01-15T02:09:09;98917.53;;;4.82;100.00
80393;BME280;69719;45.544;10.218;2024-01-15T02:11:35;98909.66;;;4.77;100.00
80393;BME280;69719;45.544;10.218;2024-01-15T02:14:01;98910.84;;;4.74;100.00
80393;BME280;69719;45.544;10.218;2024-01-15T02:16:27;98913.63;;;4.73;100.00
80393;BME280;69719;45.544;10.218;2024-01-15T02:18:53;98923.94;;;4.59;100.00
80393;BME280;69719;45.544;10.218;2024-01-15T02:21:18;98921.75;;;4.56;100.00
80393;BME280;69719;45.544;10.218;2024-01-15T02:23:44;98916.19;;;4.66;100.00
80393;BME280;69719;45.544;10.218;2024-01-15T02:26:10;98911.81;;;4.60;100.00
80393;BME280;69719;45.544;10.218;2024-01-15T02:28:35;98919.59;;;4.47;100.00
80393;BME280;69719;45.544;10.218;2024-01-15T02:31:01;98912.03;;;4.52;100.00
80393;BME280;69719;45.544;10.218;2024-01-15T02:33:27;98912.44;;;4.36;100.00
80393;BME280;69719;45.544;10.218;2024-01-15T02:35:52;98925.50;;;4.54;100.00
80393;BME280;69719;45.544;10.218;2024-01-15T02:38:18;98924.09;;;4.71;100.00
80393;BME280;69719;45.544;10.218;2024-01-15T02:40:44;98932.63;;;4.52;100.00
80393;BME280;69719;45.544;10.218;2024-01-15T02:43:10;98939.78;;;4.50;100.00
80393;BME280;69719;45.544;10.218;2024-01-15T02:45:36;98930.66;;;4.60;100.00
80393;BME280;69719;45.544;10.218;2024-01-15T02:48:01;98925.91;;;4.64;100.00
80393;BME280;69719;45.544;10.218;2024-01-15T02:50:27;98920.72;;;4.77;100.00
80393;BME280;69719;45.544;10.218;2024-01-15T02:52:52;98914.81;;;4.63;100.00
80393;BME280;69719;45.544;10.218;2024-01-15T02:55:18;98919.56;;;4.60;100.00
80393;BME280;69719;45.544;10.218;2024-01-15T02:57:44;98912.63;;;4.67;100.00
80393;BME280;69719;45.544;10.218;2024-01-15T03:00:09;98899.34;;;4.77;100.00
80393;BME280;69719;45.544;10.218;2024-01-15T03:02:39;98889.63;;;4.72;100.00
80393;BME280;69719;45.544;10.218;2024-01-15T03:05:06;98892.59;;;4.69;100.00
80393;BME280;69719;45.544;10.218;2024-01-15T03:07:32;98894.19;;;4.70;100.00
80393;BME280;69719;45.544;10.218;2024-01-15T03:09:58;98891.19;;;4.73;100.00
80393;BME280;69719;45.544;10.218;2024-01-15T03:12:24;98885.06;;;4.74;100.00
80393;BME280;69719;45.544;10.218;2024-01-15T03:14:49;98888.25;;;4.69;100.00
80393;BME280;69719;45.544;10.218;2024-01-15T03:17:15;98883.22;;;4.94;100.00
80393;BME280;69719;45.544;10.218;2024-01-15T03:19:40;98880.28;;;4.84;100.00
80393;BME280;69719;45.544;10.218;2024-01-15T03:22:06;98870.78;;;4.78;100.00
80393;BME280;69719;45.544;10.218;2024-01-15T03:24:34;98865.84;;;4.77;100.00
80393;BME280;69719;45.544;10.218;2024-01-15T03:26:59;98862.44;;;4.89;100.00
80393;BME280;69719;45.544;10.218;2024-01-15T03:29:26;98850.75;;;4.80;100.00
80393;BME280;69719;45.544;10.218;2024-01-15T03:31:52;98831.94;;;4.80;100.00
80393;BME280;69719;45.544;10.218;2024-01-15T03:34:17;98838.19;;;5.03;100.00
80393;BME280;69719;45.544;10.218;2024-01-15T03:36:43;98842.78;;;4.95;100.00
80393;BME280;69719;45.544;10.218;2024-01-15T03:39:08;98837.47;;;4.90;100.00
80393;BME280;69719;45.544;10.218;2024-01-15T03:41:34;98833.91;;;4.84;100.00
80393;BME280;69719;45.544;10.218;2024-01-15T03:44:00;98833.34;;;4.69;100.00
80393;BME280;69719;45.544;10.218;2024-01-15T03:46:25;98825.41;;;4.70;100.00
80393;BME280;69719;45.544;10.218;2024-01-15T03:48:51;98810.13;;;4.82;100.00
80393;BME280;69719;45.544;10.218;2024-01-15T03:51:19;98807.78;;;4.74;100.00
80393;BME280;69719;45.544;10.218;2024-01-15T03:53:45;98801.81;;;4.80;100.00
80393;BME280;69719;45.544;10.218;2024-01-15T03:56:11;98788.34;;;4.78;100.00
80393;BME280;69719;45.544;10.218;2024-01-15T03:58:37;98795.88;;;4.73;100.00
80393;BME280;69719;45.544;10.218;2024-01-15T04:01:02;98792.66;;;4.84;100.00
80393;BME280;69719;45.544;10.218;2024-01-15T04:03:28;98787.56;;;4.71;100.00
80393;BME280;69719;45.544;10.218;2024-01-15T04:05:54;98787.56;;;4.71;100.00
80393;BME280;69719;45.544;10.218;2024-01-15T04:08:19;98789.56;;;4.62;100.00
80393;BME280;69719;45.544;10.218;2024-01-15T04:10:45;98791.34;;;4.62;100.00
80393;BME280;69719;45.544;10.218;2024-01-15T04:13:10;98791.41;;;4.49;100.00
80393;BME280;69719;45.544;10.218;2024-01-15T04:15:36;98792.59;;;4.53;100.00
80393;BME280;69719;45.544;10.218;2024-01-15T04:18:02;98798.09;;;4.63;100.00
80393;BME280;69719;45.544;10.218;2024-01-15T04:20:28;98786.44;;;4.54;100.00
80393;BME280;69719;45.544;10.218;2024-01-15T04:22:54;98792.00;;;4.51;100.00
80393;BME280;69719;45.544;10.218;2024-01-15T04:25:19;98789.41;;;4.51;100.00
80393;BME280;69719;45.544;10.218;2024-01-15T04:27:45;98799.94;;;4.36;100.00
80393;BME280;69719;45.544;10.218;2024-01-15T04:30:11;98790.03;;;4.46;100.00
80393;BME280;69719;45.544;10.218;2024-01-15T04:32:36;98784.06;;;4.52;100.00
80393;BME280;69719;45.544;10.218;2024-01-15T04:35:02;98780.22;;;4.81;100.00
80393;BME280;69719;45.544;10.218;2024-01-15T04:37:27;98775.31;;;4.60;100.00
80393;BME280;69719;45.544;10.218;2024-01-15T04:39:53;98764.63;;;4.56;100.00
80393;BME280;69719;45.544;10.218;2024-01-15T04:42:20;98755.09;;;4.70;100.00
80393;BME280;69719;45.544;10.218;2024-01-15T04:44:47;98750.94;;;4.62;100.00
80393;BME280;69719;45.544;10.218;2024-01-15T04:47:12;98761.47;;;4.54;100.00
80393;BME280;69719;45.544;10.218;2024-01-15T04:49:38;98775.97;;;4.49;100.00
80393;BME280;69719;45.544;10.218;2024-01-15T04:52:04;98766.47;;;4.36;100.00
80393;BME280;69719;45.544;10.218;2024-01-15T04:54:29;98765.81;;;4.54;100.00
80393;BME280;69719;45.544;10.218;2024-01-15T04:56:55;98763.66;;;4.51;100.00
80393;BME280;69719;45.544;10.218;2024-01-15T04:59:20;98740.53;;;4.38;100.00
80393;BME280;69719;45.544;10.218;2024-01-15T05:01:46;98753.69;;;4.74;100.00
80393;BME280;69719;45.544;10.218;2024-01-15T05:04:12;98748.53;;;4.67;100.00
80393;BME280;69719;45.544;10.218;2024-01-15T05:06:38;98747.19;;;4.58;100.00
80393;BME280;69719;45.544;10.218;2024-01-15T05:09:03;98743.59;;;4.66;100.00
80393;BME280;69719;45.544;10.218;2024-01-15T05:11:29;98736.09;;;4.58;100.00
80393;BME280;69719;45.544;10.218;2024-01-15T05:13:55;98739.66;;;4.63;100.00
80393;BME280;69719;45.544;10.218;2024-01-15T05:16:20;98733.69;;;4.63;100.00
80393;BME280;69719;45.544;10.218;2024-01-15T05:18:49;98726.56;;;4.65;100.00
80393;BME280;69719;45.544;10.218;2024-01-15T05:21:14;98726.16;;;4.68;100.00
80393;BME280;69719;45.544;10.218;2024-01-15T05:23:40;98716.44;;;4.70;100.00
80393;BME280;69719;45.544;10.218;2024-01-15T05:26:05;98711.94;;;4.59;100.00
80393;BME280;69719;45.544;10.218;2024-01-15T05:28:31;98708.13;;;4.68;100.00
80393;BME280;69719;45.544;10.218;2024-01-15T05:30:57;98696.75;;;4.82;100.00
80393;BME280;69719;45.544;10.218;2024-01-15T05:33:23;98695.59;;;4.78;100.00
80393;BME280;69719;45.544;10.218;2024-01-15T05:35:49;98692.88;;;4.60;100.00
80393;BME280;69719;45.544;10.218;2024-01-15T05:38:16;98712.69;;;4.66;100.00
80393;BME280;69719;45.544;10.218;2024-01-15T05:40:41;98711.34;;;4.57;100.00
80393;BME280;69719;45.544;10.218;2024-01-15T05:43:07;98698.81;;;4.67;100.00
80393;BME280;69719;45.544;10.218;2024-01-15T05:45:34;98705.41;;;4.56;100.00
80393;BME280;69719;45.544;10.218;2024-01-15T05:48:00;98704.19;;;4.59;100.00
80393;BME280;69719;45.544;10.218;2024-01-15T05:50:25;98706.00;;;4.52;100.00
80393;BME280;69719;45.544;10.218;2024-01-15T05:52:50;98709.97;;;4.54;100.00
80393;BME280;69719;45.544;10.218;2024-01-15T05:55:17;98707.97;;;4.56;100.00
80393;BME280;69719;45.544;10.218;2024-01-15T05:57:44;98712.31;;;4.56;100.00
80393;BME280;69719;45.544;10.218;2024-01-15T06:00:10;98710.72;;;4.68;100.00
80393;BME280;69719;45.544;10.218;2024-01-15T06:02:37;98697.69;;;4.50;100.00
80393;BME280;69719;45.544;10.218;2024-01-15T06:05:03;98687.84;;;4.40;100.00
80393;BME280;69719;45.544;10.218;2024-01-15T06:07:29;98694.75;;;4.46;100.00
80393;BME280;69719;45.544;10.218;2024-01-15T06:09:54;98695.59;;;4.34;100.00
80393;BME280;69719;45.544;10.218;2024-01-15T06:12:22;98696.16;;;4.36;100.00
80393;BME280;69719;45.544;10.218;2024-01-15T06:14:48;98690.19;;;4.42;100.00
80393;BME280;69719;45.544;10.218;2024-01-15T06:17:13;98687.56;;;4.61;100.00
80393;BME280;69719;45.544;10.218;2024-01-15T06:19:39;98693.47;;;4.62;100.00
80393;BME280;69719;45.544;10.218;2024-01-15T06:22:04;98687.72;;;4.60;100.00
80393;BME280;69719;45.544;10.218;2024-01-15T06:24:30;98692.91;;;4.53;100.00
80393;BME280;69719;45.544;10.218;2024-01-15T06:26:55;98692.16;;;4.53;100.00
80393;BME280;69719;45.544;10.218;2024-01-15T06:29:21;98697.09;;;4.48;100.00
80393;BME280;69719;45.544;10.218;2024-01-15T06:31:46;98698.94;;;4.28;100.00
80393;BME280;69719;45.544;10.218;2024-01-15T06:34:12;98685.72;;;4.18;100.00
80393;BME280;69719;45.544;10.218;2024-01-15T06:36:37;98688.25;;;4.31;100.00
80393;BME280;69719;45.544;10.218;2024-01-15T06:39:03;98686.69;;;4.30;100.00
80393;BME280;69719;45.544;10.218;2024-01-15T06:41:29;98698.59;;;4.18;100.00
80393;BME280;69719;45.544;10.218;2024-01-15T06:43:54;98694.63;;;4.22;100.00
80393;BME280;69719;45.544;10.218;2024-01-15T06:46:24;98687.25;;;4.38;100.00
80393;BME280;69719;45.544;10.218;2024-01-15T06:48:49;98677.78;;;4.26;100.00
80393;BME280;69719;45.544;10.218;2024-01-15T06:51:15;98671.81;;;4.32;100.00
80393;BME280;69719;45.544;10.218;2024-01-15T06:53:41;98679.56;;;4.32;100.00
80393;BME280;69719;45.544;10.218;2024-01-15T06:56:08;98680.25;;;4.52;100.00
80393;BME280;69719;45.544;10.218;2024-01-15T06:58:33;98682.13;;;4.32;100.00
80393;BME280;69719;45.544;10.218;2024-01-15T07:00:59;98677.91;;;4.44;100.00
80393;BME280;69719;45.544;10.218;2024-01-15T07:03:25;98679.38;;;4.20;100.00
80393;BME280;69719;45.544;10.218;2024-01-15T07:05:50;98684.50;;;4.27;100.00
80393;BME280;69719;45.544;10.218;2024-01-15T07:08:16;98689.94;;;4.56;100.00
80393;BME280;69719;45.544;10.218;2024-01-15T07:10:42;98688.13;;;4.63;100.00
80393;BME280;69719;45.544;10.218;2024-01-15T07:13:08;98697.44;;;4.58;100.00
80393;BME280;69719;45.544;10.218;2024-01-15T07:15:34;98697.44;;;4.58;100.00
80393;BME280;69719;45.544;10.218;2024-01-15T07:17:59;98695.47;;;4.60;100.00
80393;BME280;69719;45.544;10.218;2024-01-15T07:20:25;98691.69;;;4.62;100.00
80393;BME280;69719;45.544;10.218;2024-01-15T07:22:50;98688.59;;;4.47;100.00
80393;BME280;69719;45.544;10.218;2024-01-15T07:25:16;98685.59;;;4.57;100.00
80393;BME280;69719;45.544;10.218;2024-01-15T07:27:42;98688.13;;;4.63;100.00
80393;BME280;69719;45.544;10.218;2024-01-15T07:30:12;98684.75;;;4.63;100.00
80393;BME280;69719;45.544;10.218;2024-01-15T07:32:37;98687.09;;;4.71;100.00
80393;BME280;69719;45.544;10.218;2024-01-15T07:35:03;98687.44;;;4.37;100.00
80393;BME280;69719;45.544;10.218;2024-01-15T07:37:29;98686.50;;;4.25;100.00
80393;BME280;69719;45.544;10.218;2024-01-15T07:39:55;98690.63;;;4.32;100.00
80393;BME280;69719;45.544;10.218;2024-01-15T07:42:20;98689.00;;;4.44;100.00
80393;BME280;69719;45.544;10.218;2024-01-15T07:44:46;98691.84;;;4.30;100.00
80393;BME280;69719;45.544;10.218;2024-01-15T07:47:12;98685.44;;;4.39;100.00
80393;BME280;69719;45.544;10.218;2024-01-15T07:49:37;98684.88;;;4.37;100.00
80393;BME280;69719;45.544;10.218;2024-01-15T07:52:03;98692.59;;;4.37;100.00
80393;BME280;69719;45.544;10.218;2024-01-15T07:54:31;98685.69;;;4.24;100.00
80393;BME280;69719;45.544;10.218;2024-01-15T07:56:59;98695.19;;;4.30;100.00
80393;BME280;69719;45.544;10.218;2024-01-15T07:59:24;98695.78;;;4.26;100.00
80393;BME280;69719;45.544;10.218;2024-01-15T08:02:03;98689.09;;;4.18;100.00
80393;BME280;69719;45.544;10.218;2024-01-15T08:04:28;98689.66;;;4.27;100.00
80393;BME280;69719;45.544;10.218;2024-01-15T08:06:54;98697.16;;;4.35;100.00
80393;BME280;69719;45.544;10.218;2024-01-15T08:09:19;98692.16;;;4.53;100.00
80393;BME280;69719;45.544;10.218;2024-01-15T08:11:45;98691.66;;;4.69;100.00
80393;BME280;69719;45.544;10.218;2024-01-15T08:14:11;98687.53;;;4.68;100.00
80393;BME280;69719;45.544;10.218;2024-01-15T08:16:37;98697.09;;;4.48;100.00
80393;BME280;69719;45.544;10.218;2024-01-15T08:19:03;98684.44;;;4.84;100.00
80393;BME280;69719;45.544;10.218;2024-01-15T08:21:29;98685.09;;;4.73;100.00
80393;BME280;69719;45.544;10.218;2024-01-15T08:23:59;98689.50;;;4.66;100.00
80393;BME280;69719;45.544;10.218;2024-01-15T08:26:25;98688.72;;;4.65;100.00
80393;BME280;69719;45.544;10.218;2024-01-15T08:28:50;98678.91;;;4.87;100.00
80393;BME280;69719;45.544;10.218;2024-01-15T08:31:16;98687.56;;;4.93;100.00
80393;BME280;69719;45.544;10.218;2024-01-15T08:33:42;98693.00;;;4.78;100.00
80393;BME280;69719;45.544;10.218;2024-01-15T08:36:07;98691.38;;;4.84;100.00
80393;BME280;69719;45.544;10.218;2024-01-15T08:38:34;98682.78;;;4.96;100.00
80393;BME280;69719;45.544;10.218;2024-01-15T08:41:00;98685.50;;;5.08;100.00
80393;BME280;69719;45.544;10.218;2024-01-15T08:43:26;98676.22;;;5.31;100.00
80393;BME280;69719;45.544;10.218;2024-01-15T08:45:52;98686.16;;;5.28;100.00
80393;BME280;69719;45.544;10.218;2024-01-15T08:48:18;98685.19;;;5.22;100.00
80393;BME280;69719;45.544;10.218;2024-01-15T08:50:43;98693.19;;;5.39;100.00
80393;BME280;69719;45.544;10.218;2024-01-15T08:53:11;98687.22;;;5.70;100.00
80393;BME280;69719;45.544;10.218;2024-01-15T08:55:37;98694.94;;;5.70;100.00
80393;BME280;69719;45.544;10.218;2024-01-15T08:58:03;98691.38;;;5.71;100.00
80393;BME280;69719;45.544;10.218;2024-01-15T09:00:29;98693.38;;;5.69;100.00
80393;BME280;69719;45.544;10.218;2024-01-15T09:02:55;98696.09;;;5.74;100.00
80393;BME280;69719;45.544;10.218;2024-01-15T09:05:21;98680.66;;;5.67;100.00
80393;BME280;69719;45.544;10.218;2024-01-15T09:07:47;98682.13;;;5.88;100.00
80393;BME280;69719;45.544;10.218;2024-01-15T09:10:13;98679.75;;;5.80;100.00
80393;BME280;69719;45.544;10.218;2024-01-15T09:12:38;98676.50;;;5.91;100.00
80393;BME280;69719;45.544;10.218;2024-01-15T09:15:05;98686.63;;;5.92;100.00
80393;BME280;69719;45.544;10.218;2024-01-15T09:17:31;98686.56;;;5.99;100.00
80393;BME280;69719;45.544;10.218;2024-01-15T09:19:57;98682.69;;;6.08;100.00
80393;BME280;69719;45.544;10.218;2024-01-15T09:22:22;98687.28;;;6.06;100.00
80393;BME280;69719;45.544;10.218;2024-01-15T09:24:48;98694.00;;;5.89;100.00
80393;BME280;69719;45.544;10.218;2024-01-15T09:27:13;98696.47;;;5.53;100.00
80393;BME280;69719;45.544;10.218;2024-01-15T09:29:39;98689.41;;;5.41;100.00
80393;BME280;69719;45.544;10.218;2024-01-15T09:32:09;98689.22;;;5.68;100.00
80393;BME280;69719;45.544;10.218;2024-01-15T09:34:35;98674.84;;;5.54;100.00
80393;BME280;69719;45.544;10.218;2024-01-15T09:37:00;98687.94;;;5.52;100.00
80393;BME280;69719;45.544;10.218;2024-01-15T09:39:27;98699.47;;;5.49;100.00
80393;BME280;69719;45.544;10.218;2024-01-15T09:41:53;98687.78;;;5.72;100.00
80393;BME280;69719;45.544;10.218;2024-01-15T09:44:19;98689.72;;;5.76;100.00
80393;BME280;69719;45.544;10.218;2024-01-15T09:46:46;98687.63;;;5.67;100.00
80393;BME280;69719;45.544;10.218;2024-01-15T09:49:14;98698.84;;;5.79;100.00
80393;BME280;69719;45.544;10.218;2024-01-15T09:51:42;98700.41;;;5.80;100.00
80393;BME280;69719;45.544;10.218;2024-01-15T09:54:07;98682.53;;;5.85;100.00
80393;BME280;69719;45.544;10.218;2024-01-15T09:56:34;98681.28;;;6.30;100.00
80393;BME280;69719;45.544;10.218;2024-01-15T09:59:01;98681.75;;;6.39;100.00
80393;BME280;69719;45.544;10.218;2024-01-15T10:01:28;98678.09;;;5.92;100.00
80393;BME280;69719;45.544;10.218;2024-01-15T10:03:54;98681.34;;;5.81;100.00
80393;BME280;69719;45.544;10.218;2024-01-15T10:06:21;98671.91;;;5.93;100.00
80393;BME280;69719;45.544;10.218;2024-01-15T10:08:51;98663.31;;;5.99;100.00
80393;BME280;69719;45.544;10.218;2024-01-15T10:11:17;98649.28;;;6.13;100.00
80393;BME280;69719;45.544;10.218;2024-01-15T10:13:46;98664.63;;;6.26;100.00
80393;BME280;69719;45.544;10.218;2024-01-15T10:16:12;98647.38;;;6.56;100.00
80393;BME280;69719;45.544;10.218;2024-01-15T10:18:37;98657.56;;;6.81;100.00
80393;BME280;69719;45.544;10.218;2024-01-15T10:21:07;98671.41;;;6.57;100.00
80393;BME280;69719;45.544;10.218;2024-01-15T10:23:33;98658.56;;;6.50;100.00
80393;BME280;69719;45.544;10.218;2024-01-15T10:26:00;98655.72;;;6.40;100.00
80393;BME280;69719;45.544;10.218;2024-01-15T10:28:29;98650.00;;;6.20;100.00
80393;BME280;69719;45.544;10.218;2024-01-15T10:30:57;98648.56;;;6.24;100.00
80393;BME280;69719;45.544;10.218;2024-01-15T10:33:23;98640.31;;;6.63;100.00
80393;BME280;69719;45.544;10.218;2024-01-15T10:36:00;98637.66;;;6.04;100.00
80393;BME280;69719;45.544;10.218;2024-01-15T10:38:26;98644.53;;;5.92;100.00
80393;BME280;69719;45.544;10.218;2024-01-15T10:40:55;98616.97;;;6.40;100.00
80393;BME280;69719;45.544;10.218;2024-01-15T10:43:21;98619.81;;;6.50;100.00
80393;BME280;69719;45.544;10.218;2024-01-15T10:45:48;98618.34;;;6.24;100.00
80393;BME280;69719;45.544;10.218;2024-01-15T10:48:16;98618.56;;;6.23;100.00
80393;BME280;69719;45.544;10.218;2024-01-15T10:50:44;98617.06;;;5.97;100.00
80393;BME280;69719;45.544;10.218;2024-01-15T10:53:11;98615.84;;;6.18;100.00
80393;BME280;69719;45.544;10.218;2024-01-15T10:55:38;98611.53;;;6.12;100.00
80393;BME280;69719;45.544;10.218;2024-01-15T10:58:05;98605.72;;;6.16;100.00
80393;BME280;69719;45.544;10.218;2024-01-15T11:00:33;98610.41;;;6.08;100.00
80393;BME280;69719;45.544;10.218;2024-01-15T11:03:01;98608.25;;;6.05;100.00
80393;BME280;69719;45.544;10.218;2024-01-15T11:05:28;98604.13;;;6.34;100.00
80393;BME280;69719;45.544;10.218;2024-01-15T11:07:58;98598.34;;;6.20;100.00
80393;BME280;69719;45.544;10.218;2024-01-15T11:13:04;98584.78;;;6.54;100.00
80393;BME280;69719;45.544;10.218;2024-01-15T11:15:30;98598.56;;;6.48;100.00
80393;BME280;69719;45.544;10.218;2024-01-15T11:18:00;98573.66;;;6.24;100.00
80393;BME280;69719;45.544;10.218;2024-01-15T11:20:26;98581.16;;;6.85;100.00
80393;BME280;69719;45.544;10.218;2024-01-15T11:22:51;98569.47;;;6.94;100.00
80393;BME280;69719;45.544;10.218;2024-01-15T11:25:20;98558.25;;;7.23;100.00
80393;BME280;69719;45.544;10.218;2024-01-15T11:27:50;98553.66;;;7.37;100.00
80393;BME280;69719;45.544;10.218;2024-01-15T11:30:24;98535.97;;;7.45;100.00
80393;BME280;69719;45.544;10.218;2024-01-15T11:32:50;98547.13;;;7.46;100.00
80393;BME280;69719;45.544;10.218;2024-01-15T11:35:16;98537.88;;;7.50;100.00
80393;BME280;69719;45.544;10.218;2024-01-15T11:40:20;98526.09;;;7.19;100.00
80393;BME280;69719;45.544;10.218;2024-01-15T11:42:47;98514.50;;;7.22;100.00
80393;BME280;69719;45.544;10.218;2024-01-15T11:45:13;98506.53;;;6.88;100.00
80393;BME280;69719;45.544;10.218;2024-01-15T11:50:24;98480.53;;;7.41;100.00
80393;BME280;69719;45.544;10.218;2024-01-15T11:53:00;98474.94;;;7.10;100.00
80393;BME280;69719;45.544;10.218;2024-01-15T11:55:38;98468.72;;;7.34;100.00
80393;BME280;69719;45.544;10.218;2024-01-15T11:58:10;98448.31;;;7.49;100.00
80393;BME280;69719;45.544;10.218;2024-01-15T12:00:47;98449.41;;;7.64;100.00
80393;BME280;69719;45.544;10.218;2024-01-15T12:03:14;98438.38;;;7.57;100.00
80393;BME280;69719;45.544;10.218;2024-01-15T12:05:40;98443.91;;;7.61;100.00
80393;BME280;69719;45.544;10.218;2024-01-15T12:08:07;98439.41;;;7.56;100.00
80393;BME280;69719;45.544;10.218;2024-01-15T12:10:40;98444.81;;;7.55;100.00
80393;BME280;69719;45.544;10.218;2024-01-15T12:13:16;98433.19;;;7.69;100.00
80393;BME280;69719;45.544;10.218;2024-01-15T12:15:44;98427.34;;;7.62;100.00
80393;BME280;69719;45.544;10.218;2024-01-15T12:18:12;98426.38;;;7.51;100.00
80393;BME280;69719;45.544;10.218;2024-01-15T12:20:39;98424.47;;;7.47;100.00
80393;BME280;69719;45.544;10.218;2024-01-15T12:23:05;98413.84;;;7.60;100.00
80393;BME280;69719;45.544;10.218;2024-01-15T12:25:34;98414.34;;;7.57;100.00
80393;BME280;69719;45.544;10.218;2024-01-15T12:28:00;98414.50;;;7.67;100.00
80393;BME280;69719;45.544;10.218;2024-01-15T12:30:30;98402.25;;;7.91;100.00
80393;BME280;69719;45.544;10.218;2024-01-15T12:33:01;98398.09;;;8.06;100.00
80393;BME280;69719;45.544;10.218;2024-01-15T12:35:29;98387.72;;;8.06;100.00
80393;BME280;69719;45.544;10.218;2024-01-15T12:37:55;98381.09;;;8.10;100.00
80393;BME280;69719;45.544;10.218;2024-01-15T12:40:21;98365.31;;;8.28;100.00
80393;BME280;69719;45.544;10.218;2024-01-15T12:42:47;98370.88;;;8.20;100.00
80393;BME280;69719;45.544;10.218;2024-01-15T12:45:13;98358.56;;;8.44;100.00
80393;BME280;69719;45.544;10.218;2024-01-15T12:47:40;98363.63;;;8.55;100.00
80393;BME280;69719;45.544;10.218;2024-01-15T12:50:10;98354.56;;;8.36;100.00
80393;BME280;69719;45.544;10.218;2024-01-15T12:52:36;98338.63;;;8.44;100.00
80393;BME280;69719;45.544;10.218;2024-01-15T12:55:05;98342.22;;;8.43;100.00